Hard Rock, Arizona
Current Conditions -  °F | °C
As of 11:56 PM on Sunday 21 Dec 2014 (Local Time) from KINW Reporting Station
Clear Clear  
Wind Chill: 26°   Ceiling: Unl
Heat Index: 33°   Visibility: 10mi
Dew Point: 31°   Wind: 8mph
Humidity: 92%   Direction: 200°SSW
Pressure: 30.06"   Gusts: NA
Location:  35.8773°N, 110.619°W
Report Text: KINW 220656Z AUTO 20007KT 10SM CLR 01/M01 A3006 RMK AO2 SLP184 T00061006 401061028
Loading
Personal Weather Stations






























Interactive Weather Map New forecast layout! Learn more

10-Day Weather Forecast

Advertisements
Track Severe Weather on mobile